Shipdham, United Kingdom
Current Conditions -  °F | °C
As of 8:50 PM on Saturday 22 Nov 2014 (Local Time) from EGYM Reporting Station
Haze Haze  
Wind Chill: 54°   Ceiling: 1800
Heat Index: 54°   Visibility: 2mi
Dew Point: 54°   Wind: 5mph
Humidity: 100%   Direction: 160°SSE
Pressure: 29.94"   Gusts: NA
Location:  52.63°N, 0.89°E
Report Text: EGYM 222050Z AUTO 16004KT 3300 BR SCT004/// BKN018/// 12/12 Q1014
Loading
Personal Weather Stations






























Interactive Weather Map New forecast layout! Learn more

10-Day Weather Forecast

Advertisements
Track Severe Weather on mobile